• Join FlightAware (Why Join?)
  • Login
  • US Flag 
03:58AM EST


 

Airport Tracker/Info


-or-


 

Live Flight TrackerFlight Track Log ✈ DAL268 ✈ 21-Jun-2013 ✈ KJFK - LLBG / TLV

Flight Track Log - Related Links

Times and Time Zones

All times are in EDT time to prevent confusion due to time zone crossing. See the DAL268 flight status page for this flight to view local times or setup timezone preferences in your user account.

Time Position Orientation Groundspeed Altitude Reporting Facility
EDT Latitude Longitude Course Direction KTS MPH feet Rate Location/Type
11:36PM 40.6370 -73.7800 264° West  Level FlightAware
11:40PM 40.6370 -73.7790 90° East 2 2  Level FlightAware
11:41PM 40.6380 -73.7790 360° North 2 2  Level FlightAware
11:44PM 40.4918 -73.3420 114° Southeast  Level FlightAware Approximate
11:45PM 40.4458 -73.1736 119° Southeast  Level FlightAware Approximate
11:46PM 40.3833 -73.0125 90° East  Level FlightAware Approximate
11:47PM 40.4127 -72.8368 75° East  Level FlightAware Approximate
11:48PM 40.6360 -73.7790 180° South 9 10  Level FlightAware
11:49PM 40.6360 -73.7780 90° East 15 17  Level FlightAware
11:49PM 40.6350 -73.7780 180° South 16 18  Level FlightAware
11:50PM 40.6350 -73.7790 270° West 16 18  Level FlightAware
11:50PM 40.6340 -73.7790 180° South 17 20  Level FlightAware
11:50PM 40.6340 -73.7800 270° West 18 21  Level FlightAware
11:51PM 40.6350 -73.7810 323° Northwest 22 25  Level FlightAware
11:51PM 40.6350 -73.7830 270° West 26 30 60 Level FlightAware
11:52PM 40.6360 -73.7850 303° West 30 35 60 Level FlightAware
11:52PM 40.6370 -73.7870 303° West 29 33 60 Level FlightAware
11:53PM 40.6380 -73.7890 303° West 30 35 60 Level FlightAware
11:53PM 40.6390 -73.7910 303° West 31 36 60 Level FlightAware
11:54PM 40.6400 -73.7920 323° Northwest 17 20 60 Level FlightAware
11:54PM 40.6400 -73.7940 270° West 15 17 60 Level FlightAware
11:56PM 40.6410 -73.7940 360° North 15 17 60 Level FlightAware
11:56PM 40.6420 -73.7970 294° West 24 28 60 Level FlightAware
11:57PM 40.6420 -73.7990 270° West 22 25 60 Level FlightAware
11:57PM 40.6420 -73.8000 270° West 24 28 60 Level FlightAware
11:58PM 40.6430 -73.8010 323° Northwest 27 31 60 Level FlightAware
11:58PM 40.6440 -73.8030 303° West 25 29 60 Level FlightAware
11:59PM 40.6450 -73.8050 303° West 27 31 120 Level FlightAware
11:59PM 40.6450 -73.8060 270° West 30 35 120 Level FlightAware
12:00AM 40.6460 -73.8080 303° West 34 39 120 Level FlightAware
12:00AM 40.6470 -73.8100 303° West 31 36 120 Level FlightAware
12:01AM 40.6490 -73.8140 303° West 22 25 180 Level FlightAware
12:02AM 40.6490 -73.8150 270° West 21 24 180 Level FlightAware
12:02AM 40.6490 -73.8160 270° West 21 24 240 Level FlightAware
12:04AM 40.6450 -73.8090 123° Southeast 100 115 240 Level FlightAware
12:05AM 40.8343 -73.4754 123° Southeast  Level Estimated
12:05AM 40.6380 -73.7940 122° Southeast 175 201  Level FlightAware
12:05AM 40.6210 -73.7600 123° Southeast 195 224 900 1,500 Climbing FlightAware
12:06AM 40.6010 -73.7360 138° Southeast 225 259 1,600 1,140 Climbing FlightAware
12:06AM 40.5770 -73.7080 138° Southeast 262 302 2,000 1,080 Climbing FlightAware
12:07AM 40.5630 -73.6920 139° Southeast 274 315 2,400 2,040 Climbing FlightAware
12:07AM 40.5390 -73.6650 139° Southeast 282 325 3,400 2,640 Climbing FlightAware
12:07AM 40.5092 -73.6330 141° Southeast 289 333 4,700 3,060 Climbing FlightAware ADS-B
12:07AM 40.5046 -73.6264 133° Southeast 288 331 5,000 2,640 Climbing FlightAware ADS-B
12:08AM 40.5018 -73.6219 129° Southeast 289 333 5,100 1,980 Climbing FlightAware ADS-B
12:08AM 40.4979 -73.6143 124° Southeast 292 336 5,300 2,400 Climbing FlightAware ADS-B
12:08AM 40.4947 -73.6063 118° Southeast 296 341 5,500 2,100 Climbing FlightAware ADS-B
12:08AM 40.4905 -73.5898 109° East 300 345 5,800 2,400 Climbing FlightAware ADS-B
12:08AM 40.4893 -73.5806 100° East 301 346 6,100 2,640 Climbing FlightAware ADS-B
12:08AM 40.4889 -73.5746 95° East 301 346 6,200 2,700 Climbing FlightAware ADS-B
12:08AM 40.4886 -73.5597 92° East 301 346 6,600 2,580 Climbing FlightAware ADS-B
12:08AM 40.4894 -73.5320 88° East 305 351 7,200 2,400 Climbing FlightAware ADS-B
12:09AM 40.4907 -73.5036 87° East 313 360 7,800 2,340 Climbing FlightAware ADS-B
12:09AM 40.4924 -73.4698 86° East 318 366 8,500 2,280 Climbing FlightAware ADS-B
12:09AM 40.4936 -73.4386 87° East 321 369 9,100 2,280 Climbing FlightAware ADS-B
12:09AM 40.4936 -73.4190 90° East 324 373 9,500 2,220 Climbing FlightAware ADS-B
12:09AM 40.4924 -73.4073 98° East 328 377 9,700 2,400 Climbing FlightAware ADS-B
12:10AM 40.4910 -73.3988 102° East 329 379 9,900 1,500 Climbing FlightAware ADS-B
12:10AM 40.4781 -73.3450 107° East 352 405 10,500 1,200 Climbing FlightAware ADS-B
12:11AM 40.4610 -73.2810 109° East 380 437 11,100 1,140 Climbing FlightAware ADS-B
12:11AM 40.4431 -73.2112 109° East 406 467 11,700 1,380 Climbing FlightAware ADS-B
12:11AM 40.4358 -73.1805 107° East 414 476 12,100 1,980 Climbing FlightAware ADS-B
12:11AM 40.4337 -73.1680 102° East 416 479 12,300 1,680 Climbing FlightAware ADS-B
12:11AM 40.4320 -73.1467 96° East 418 481 12,500 1,980 Climbing FlightAware ADS-B
12:12AM 40.4333 -73.1144 87° East 420 483 13,000 2,280 Climbing FlightAware ADS-B
12:12AM 40.4364 -73.0935 79° East 421 484 13,300 2,280 Climbing FlightAware ADS-B
12:12AM 40.4386 -73.0833 74° East 422 486 13,500 2,160 Climbing FlightAware ADS-B
12:12AM 40.4433 -73.0682 68° East 423 487 13,700 2,160 Climbing FlightAware ADS-B
12:13AM 40.4669 -72.9930 68° East 429 494 14,900 2,280 Climbing FlightAware ADS-B
12:13AM 40.4962 -72.9105 65° Northeast 434 499 16,200 2,040 Climbing FlightAware ADS-B
12:14AM 40.5217 -72.8343 66° East 440 506 17,200 1,860 Climbing FlightAware ADS-B
12:14AM 40.5520 -72.7403 67° East 451 519 18,400 1,740 Climbing FlightAware ADS-B
12:15AM 40.5765 -72.6631 67° East 460 529 19,200 1,620 Climbing FlightAware ADS-B
12:15AM 40.6017 -72.5835 67° East 466 536 20,100 1,500 Climbing FlightAware ADS-B
12:16AM 40.6490 -72.4330 67° East 481 554 21,500 1,500 Climbing FlightAware
12:17AM 40.6880 -72.3080 68° East 488 562 22,700 1,500 Climbing FlightAware
12:17AM 40.7068 -72.2487 67° East 494 568 23,200 1,380 Climbing FlightAware ADS-B
12:18AM 40.7590 -72.0830 67° East 502 578 24,600 1,320 Climbing FlightAware
12:19AM 40.7950 -71.9660 68° East 509 586 25,500 1,200 Climbing FlightAware
12:20AM 40.8380 -71.8270 68° East 519 597 26,400 1,020 Climbing FlightAware
12:20AM 40.8310 -71.8490 247° West 27,100 960 Climbing FlightAware
12:21AM 40.9020 -71.6180 68° East 532 612 27,600 840 Climbing FlightAware
12:22AM 40.9360 -71.5060 68° East 540 621 28,100 480 Climbing FlightAware
12:22AM 40.9740 -71.3790 68° East 541 623 28,300 840 Climbing FlightAware
12:23AM 41.0260 -71.2060 68° East 542 624 29,600 1,800 Climbing FlightAware
12:24AM 41.0700 -71.0620 68° East 537 618 31,300 1,800 Climbing FlightAware
12:25AM 41.1210 -70.8900 68° East 530 610 32,600 900 Climbing FlightAware
12:26AM 41.1620 -70.7520 68° East 528 608 33,000 240 Climbing FlightAware
12:27AM 41.2170 -70.5640 69° East 522 601 33,100  Climbing FlightAware
12:27AM 41.2000 -70.5333 63° Northeast 190 219 33,000  Descending Moncton Center
12:28AM 41.2610 -70.4120 69° East 521 600 33,100  Climbing FlightAware
12:28AM 41.2667 -70.3667 62° Northeast 460 529 33,000 -120 Descending Moncton Center
12:29AM 41.3090 -70.2500 68° East 33,100  Climbing FlightAware
12:29AM 41.3167 -70.2000 68° East 500 575 33,000 -120 Descending Moncton Center
12:30AM 41.3667 -70.0000 72° East 510 587 33,000  Level Moncton Center
12:31AM 41.4425 -69.9084 62° Northeast  Level FlightAware Approximate
12:31AM 41.4167 -69.8167 70° East 520 598 33,000  Level Moncton Center
12:32AM 41.5088 -69.7371 63° Northeast  Level FlightAware Approximate
12:32AM 41.4667 -69.6333 70° East 530 610 33,000  Level Moncton Center
12:33AM 41.5749 -69.5654 63° Northeast  Level FlightAware Approximate
12:33AM 41.5333 -69.4500 64° Northeast 530 610 33,000  Level Moncton Center
12:34AM 41.5667 -69.2500 77° East 530 610 33,000  Level Moncton Center
12:35AM 41.6333 -69.0833 62° Northeast 530 610 33,000  Level Moncton Center
12:36AM 41.6667 -68.8833 77° East 530 610 33,000  Level Moncton Center
12:37AM 41.7333 -68.7167 62° Northeast 530 610 33,000  Level Moncton Center
12:38AM 41.7667 -68.5167 77° East 530 610 33,000  Level Moncton Center
12:39AM 41.8333 -68.3000 67° East 540 621 33,000  Level Moncton Center
12:40AM 41.8833 -68.1167 70° East 540 621 33,100  Climbing Moncton Center
12:42AM 41.9833 -67.7333 71° East 540 621 33,000  Descending Moncton Center
12:44AM 42.0842 -67.4710 63° Northeast  Level FlightAware Approximate
12:44AM 42.0833 -67.3667 63° Northeast 530 610 33,100  Level Moncton Center
12:45AM 42.1333 -67.1667 71° East 530 610 33,000 -60 Descending Moncton Center
12:46AM 42.1833 -66.9833 70° East 530 610 33,000  Level Moncton Center
12:47AM 42.2167 -66.7833 77° East 530 610 33,000  Level Moncton Center
12:48AM 42.2833 -66.6000 64° Northeast 530 610 33,000  Level Moncton Center
12:49AM 42.3167 -66.4333 75° East 520 598 33,000  Level Moncton Center
12:50AM 42.3667 -66.2500 70° East 530 610 33,100  Climbing Moncton Center
12:51AM 42.4000 -66.0500 77° East 540 621 33,000 -60 Descending Moncton Center
12:52AM 42.4500 -65.8667 70° East 530 610 33,000  Level Moncton Center
12:53AM 42.5167 -65.6667 66° East 530 610 33,000  Level Moncton Center
12:54AM 42.5500 -65.4833 76° East 530 610 33,000  Level Moncton Center
12:55AM 42.6000 -65.2833 71° East 530 610 33,000  Level Moncton Center
12:56AM 42.6500 -65.1000 70° East 530 610 33,000  Level Moncton Center
12:57AM 42.6833 -64.9167 76° East 530 610 33,000  Level Moncton Center
12:58AM 42.7333 -64.7167 71° East 520 598 33,000  Level Moncton Center
12:59AM 42.7667 -64.5333 76° East 530 610 33,000  Level Moncton Center
01:00AM 42.8167 -64.3333 71° East 520 598 33,000  Level Moncton Center
01:01AM 42.8500 -64.1500 76° East 530 610 33,000  Level Moncton Center
01:02AM 42.9000 -63.9333 72° East 530 610 33,100  Climbing Moncton Center
01:03AM 42.9500 -63.7500 70° East 530 610 33,000 -60 Descending Moncton Center
01:04AM 42.9833 -63.5500 77° East 530 610 33,000  Level Moncton Center
01:05AM 43.0333 -63.3667 69° East 530 610 33,000  Level Moncton Center
01:06AM 43.0667 -63.1833 76° East 530 610 33,000  Level Moncton Center
01:07AM 43.1167 -62.9833 71° East 530 610 33,000  Level Moncton Center
01:08AM 43.1500 -62.8000 76° East 530 610 33,000  Level Moncton Center
01:09AM 43.1833 -62.6000 77° East 530 610 33,000  Level Gander Center
01:10AM 43.2167 -62.4000 77° East 530 610 33,000  Level Gander Center
01:11AM 43.2667 -62.2167 69° East 530 610 33,000  Level Gander Center
01:12AM 43.3167 -62.0167 71° East 520 598 33,000  Level Gander Center
01:13AM 43.3500 -61.8333 76° East 530 610 33,000  Level Gander Center
01:14AM 43.3833 -61.6333 77° East 530 610 33,000  Level Gander Center
01:15AM 43.4333 -61.4167 72° East 530 610 33,100  Climbing Gander Center
01:16AM 43.4667 -61.2333 76° East 530 610 33,100 -60 Level Gander Center
01:17AM 43.5000 -61.0333 77° East 530 610 33,000  Descending Gander Center
01:18AM 43.5500 -60.8500 69° East 520 598 33,100 60 Climbing Moncton Center
01:18AM 43.5500 -60.8500 69° East 530 610 33,100  Level Gander Center
01:19AM 43.5667 -60.6667 83° East 520 598 33,100 -60 Level Moncton Center
01:20AM 43.6000 -60.4500 78° East 520 598 33,000 -60 Descending Gander Center
01:21AM 43.6333 -60.2667 76° East 520 598 33,000  Level Gander Center
01:22AM 43.6833 -60.0667 71° East 530 610 33,100  Climbing Gander Center
01:23AM 43.7167 -59.8833 76° East 520 598 33,000  Descending Gander Center
01:29AM 43.9380 -58.7270 76° East 527 606 33,100  Climbing FlightAware
01:30AM 43.9610 -58.5880 77° East 530 610 33,100  Level FlightAware
01:31AM 43.9870 -58.4420 76° East 530 610 33,100  Level FlightAware
01:31AM 44.0050 -58.3380 76° East 530 610 33,100  Level FlightAware
01:32AM 44.0390 -58.1210 78° East 535 616 33,100  Level FlightAware
01:33AM 44.0610 -57.9860 77° East 536 617 33,100  Level FlightAware
01:34AM 44.0900 -57.8040 77° East 537 618 33,100  Level FlightAware
01:34AM 44.1110 -57.6740 77° East 537 618 33,100  Level FlightAware
01:35AM 44.1340 -57.5310 77° East 538 619 33,100  Level FlightAware
01:36AM 44.1660 -57.3210 78° East 541 623 33,100  Level FlightAware
01:37AM 44.1870 -57.1920 77° East 542 624 33,100  Level FlightAware
01:37AM 44.2050 -57.0790 77° East 542 624 33,100  Level FlightAware
01:38AM 44.2280 -56.9400 77° East 542 624 33,100  Level FlightAware
01:39AM 44.2590 -56.7180 79° East 543 625 33,100  Level FlightAware
01:40AM 44.2750 -56.6100 78° East 543 625 33,100  Level FlightAware
01:40AM 44.2970 -56.4640 78° East 543 625 33,100  Level FlightAware
01:41AM 44.3130 -56.3650 77° East 543 625 33,100  Level FlightAware
01:42AM 44.3340 -56.2210 78° East 543 625 33,100  Level FlightAware
01:42AM 44.3500 -56.1160 78° East 543 625 33,100  Level FlightAware
01:43AM 44.3720 -55.9760 78° East 543 625 33,100  Level FlightAware
01:44AM 44.3880 -55.8710 78° East 543 625 33,100  Level FlightAware
01:45AM 44.4090 -55.7280 78° East 543 625 33,100  Level FlightAware
01:45AM 44.4240 -55.6310 78° East 543 625 33,100  Level FlightAware
01:46AM 44.4450 -55.4910 78° East 543 625 33,100  Level FlightAware
01:47AM 44.4610 -55.3850 78° East 543 625 33,100  Level FlightAware
01:47AM 44.4830 -55.2420 78° East 543 625 33,100  Level FlightAware
01:48AM 44.5000 -55.1310 78° East 543 625 33,100 -120 Level FlightAware
01:49AM 44.5167 -54.6333 78° East 560 644 33,000 -120 Descending Gander Center
01:50AM 44.5500 -54.4333 77° East 560 644 33,000  Level Gander Center
01:51AM 44.5667 -54.2333 83° East 550 633 33,000  Level Gander Center
01:52AM 44.6000 -54.0167 78° East 560 644 33,000  Level Gander Center
01:53AM 44.6167 -53.8000 84° East 550 633 33,100  Climbing Gander Center
01:53AM 44.6333 -53.6667 80° East 580 667 33,000 -120 Descending Gander Center
01:54AM 44.6667 -53.4500 78° East 570 656 33,000  Level Gander Center
01:55AM 44.6833 -53.2333 84° East 570 656 33,100  Climbing Gander Center
01:56AM 44.7167 -53.0000 79° East 580 667 33,000 -60 Descending Gander Center
01:57AM 44.7333 -52.7833 84° East 580 667 33,000  Level Gander Center
01:58AM 44.7333 -52.5500 90° East 570 656 33,000  Level Gander Center
01:59AM 44.7667 -52.3333 78° East 590 679 33,000  Level Gander Center
02:00AM 44.7833 -52.1167 84° East 570 656 33,100  Climbing Gander Center
02:01AM 44.8167 -51.9000 78° East 560 644 33,000 -60 Descending Gander Center
02:02AM 44.8333 -51.6833 84° East 560 644 33,000  Level Gander Center
02:03AM 44.8500 -51.4333 85° East 570 656 33,000  Level Gander Center
02:04AM 44.8833 -51.2500 76° East 560 644 33,000  Level Gander Center
02:05AM 44.8833 -51.0000 90° East 570 656 33,000  Level Gander Center
02:06AM 44.9167 -50.7833 78° East 560 644 33,000  Level Gander Center
02:07AM 44.9333 -50.5667 84° East 570 656 33,000  Level Gander Center
02:08AM 44.9500 -50.3500 84° East 570 656 33,000  Level Gander Center
02:09AM 44.9667 -50.1333 84° East 560 644 33,100  Climbing Gander Center
02:10AM 45.0000 -49.9167 78° East 570 656 33,000 -60 Descending Gander Center
02:11AM 45.0667 -49.7167 65° Northeast 580 667 33,000  Level Gander Center
02:12AM 45.1333 -49.5000 66° East 580 667 33,000  Level Gander Center
02:13AM 45.2000 -49.3333 60° Northeast 600 690 33,100  Climbing Gander Center
02:14AM 45.2833 -49.1000 63° Northeast 590 679 33,000 -60 Descending Gander Center
02:15AM 45.3500 -48.9167 63° Northeast 570 656 33,000  Level Gander Center
02:17AM 45.4500 -48.6000 66° East 580 667 33,000  Level Gander Center
02:18AM 45.5167 -48.4167 63° Northeast 570 656 33,000  Level Gander Center
02:19AM 45.6000 -48.2000 61° Northeast 570 656 33,000  Level Gander Center
02:20AM 45.6833 -47.9000 68° East 560 644 33,000  Level Gander Center
02:23AM 45.8833 -47.3167 64° Northeast 580 667 33,000  Level Gander Center
02:25AM 45.9538 -47.1187 63° Northeast  Level FlightAware Approximate
02:32AM 46.3930 -45.7964 66° East  Level FlightAware Approximate
02:33AM 46.4516 -45.6040 66° East  Level FlightAware Approximate
02:34AM 46.5099 -45.4112 66° East  Level FlightAware Approximate
02:35AM 46.5685 -45.2184 66° East  Level FlightAware Approximate
02:36AM 46.6271 -45.0253 66° East  Level FlightAware Approximate
02:37AM 46.6854 -44.8319 66° East  Level FlightAware Approximate
02:38AM 46.7434 -44.6381 66° East  Level FlightAware Approximate
02:39AM 46.8011 -44.4438 67° East  Level FlightAware Approximate
02:40AM 46.8584 -44.2491 67° East  Level FlightAware Approximate
02:41AM 46.9154 -44.0540 67° East  Level FlightAware Approximate
02:42AM 46.9720 -43.8585 67° East  Level FlightAware Approximate
02:43AM 47.0284 -43.6626 67° East  Level FlightAware Approximate
02:44AM 47.0844 -43.4663 67° East  Level FlightAware Approximate
02:45AM 47.1400 -43.2695 67° East  Level FlightAware Approximate
02:46AM 47.1954 -43.0724 68° East  Level FlightAware Approximate
02:47AM 47.2503 -42.8748 68° East  Level FlightAware Approximate
02:48AM 47.3050 -42.6768 68° East  Level FlightAware Approximate
02:49AM 47.3593 -42.4785 68° East  Level FlightAware Approximate
02:50AM 47.4132 -42.2797 68° East  Level FlightAware Approximate
02:51AM 47.4668 -42.0805 68° East  Level FlightAware Approximate
02:52AM 47.5201 -41.8809 68° East  Level FlightAware Approximate
02:53AM 47.5730 -41.6809 69° East  Level FlightAware Approximate
02:54AM 47.6256 -41.4804 69° East  Level FlightAware Approximate
02:55AM 47.6778 -41.2796 69° East  Level FlightAware Approximate
02:56AM 47.7297 -41.0784 69° East  Level FlightAware Approximate
02:57AM 47.7812 -40.8768 69° East  Level FlightAware Approximate
02:58AM 47.8324 -40.6748 69° East  Level FlightAware Approximate
02:59AM 47.8832 -40.4724 69° East  Level FlightAware Approximate
03:00AM 47.9336 -40.2696 70° East  Level FlightAware Approximate
03:01AM 47.9837 -40.0664 70° East  Level FlightAware Approximate
03:02AM 48.0344 -39.8633 69° East  Level FlightAware Approximate
03:03AM 48.0853 -39.6601 69° East  Level FlightAware Approximate
03:04AM 48.1357 -39.4565 70° East  Level FlightAware Approximate
03:05AM 48.1858 -39.2525 70° East  Level FlightAware Approximate
03:06AM 48.2355 -39.0481 70° East  Level FlightAware Approximate
03:07AM 48.2849 -38.8433 70° East  Level FlightAware Approximate
03:08AM 48.3339 -38.6381 70° East  Level FlightAware Approximate
03:09AM 48.3825 -38.4325 70° East  Level FlightAware Approximate
03:10AM 48.4308 -38.2266 70° East  Level FlightAware Approximate
03:11AM 48.4787 -38.0202 71° East  Level FlightAware Approximate
03:12AM 48.5263 -37.8135 71° East  Level FlightAware Approximate
03:13AM 48.5734 -37.6063 71° East  Level FlightAware Approximate
03:14AM 48.6202 -37.3988 71° East  Level FlightAware Approximate
03:15AM 48.6666 -37.1909 71° East  Level FlightAware Approximate
03:16AM 48.7127 -36.9826 71° East  Level FlightAware Approximate
03:17AM 48.7584 -36.7739 72° East  Level FlightAware Approximate
03:18AM 48.8036 -36.5649 72° East  Level FlightAware Approximate
03:19AM 48.8485 -36.3554 72° East  Level FlightAware Approximate
03:20AM 48.8931 -36.1456 72° East  Level FlightAware Approximate
03:21AM 48.9372 -35.9355 72° East  Level FlightAware Approximate
03:22AM 48.9810 -35.7249 72° East  Level FlightAware Approximate
03:23AM 49.0244 -35.5140 73° East  Level FlightAware Approximate
03:24AM 49.0674 -35.3027 73° East  Level FlightAware Approximate
03:25AM 49.1100 -35.0911 73° East  Level FlightAware Approximate
03:26AM 49.1522 -34.8791 73° East  Level FlightAware Approximate
03:27AM 49.1941 -34.6668 73° East  Level FlightAware Approximate
03:28AM 49.2355 -34.4540 73° East  Level FlightAware Approximate
03:29AM 49.2766 -34.2410 73° East  Level FlightAware Approximate
03:30AM 49.3172 -34.0275 74° East  Level FlightAware Approximate
03:31AM 49.3575 -33.8137 74° East  Level FlightAware Approximate
03:32AM 49.3974 -33.5996 74° East  Level FlightAware Approximate
03:33AM 49.4369 -33.3851 74° East  Level FlightAware Approximate
03:34AM 49.4759 -33.1703 74° East  Level FlightAware Approximate
03:35AM 49.5146 -32.9552 74° East  Level FlightAware Approximate
03:36AM 49.5529 -32.7397 75° East  Level FlightAware Approximate
03:37AM 49.5908 -32.5238 75° East  Level FlightAware Approximate
03:38AM 49.6283 -32.3076 75° East  Level FlightAware Approximate
03:39AM 49.6653 -32.0911 75° East  Level FlightAware Approximate
03:40AM 49.7020 -31.8743 75° East  Level FlightAware Approximate
03:41AM 49.7383 -31.6572 75° East  Level FlightAware Approximate
03:42AM 49.7741 -31.4397 76° East  Level FlightAware Approximate
03:43AM 49.8096 -31.2219 76° East  Level FlightAware Approximate
03:44AM 49.8446 -31.0037 76° East  Level FlightAware Approximate
03:45AM 49.8793 -30.7853 76° East  Level FlightAware Approximate
03:46AM 49.9135 -30.5666 76° East  Level FlightAware Approximate
03:47AM 49.9473 -30.3475 76° East  Level FlightAware Approximate
03:48AM 49.9807 -30.1282 77° East  Level FlightAware Approximate
03:49AM 50.0040 -29.9062 86° East  Level FlightAware Approximate
03:50AM 50.0133 -29.6811 86° East  Level FlightAware Approximate
03:51AM 50.0221 -29.4558 86° East  Level FlightAware Approximate
03:52AM 50.0305 -29.2305 87° East  Level FlightAware Approximate
03:53AM 50.0385 -29.0051 87° East  Level FlightAware Approximate
03:54AM 50.0460 -28.7796 87° East  Level FlightAware Approximate
03:55AM 50.0531 -28.5541 87° East  Level FlightAware Approximate
03:56AM 50.0598 -28.3281 87° East  Level FlightAware Approximate
03:57AM 50.0660 -28.1020 87° East  Level FlightAware Approximate
03:58AM 50.0718 -27.8759 88° East  Level FlightAware Approximate
03:59AM 50.0771 -27.6497 88° East  Level FlightAware Approximate
04:00AM 50.0820 -27.4234 88° East  Level FlightAware Approximate
04:01AM 50.0865 -27.1972 88° East  Level FlightAware Approximate
04:02AM 50.0905 -26.9709 88° East  Level FlightAware Approximate
04:03AM 50.0941 -26.7445 88° East  Level FlightAware Approximate
04:04AM 50.0973 -26.5181 89° East  Level FlightAware Approximate
04:05AM 50.1000 -26.2917 89° East  Level FlightAware Approximate
04:06AM 50.1023 -26.0653 89° East  Level FlightAware Approximate
04:07AM 50.1041 -25.8388 89° East  Level FlightAware Approximate
04:08AM 50.1055 -25.6124 89° East  Level FlightAware Approximate
04:09AM 50.1064 -25.3859 90° East  Level FlightAware Approximate
04:10AM 50.1069 -25.1594 90° East  Level FlightAware Approximate
04:11AM 50.1070 -24.9329 90° East  Level FlightAware Approximate
04:12AM 50.1066 -24.7064 90° East  Level FlightAware Approximate
04:13AM 50.1058 -24.4800 90° East  Level FlightAware Approximate
04:14AM 50.1045 -24.2535 90° East  Level FlightAware Approximate
04:15AM 50.1029 -24.0270 91° East  Level FlightAware Approximate
04:16AM 50.1007 -23.8006 91° East  Level FlightAware Approximate
04:17AM 50.0982 -23.5742 91° East  Level FlightAware Approximate
04:18AM 50.0952 -23.3478 91° East  Level FlightAware Approximate
04:19AM 50.0918 -23.1215 91° East  Level FlightAware Approximate
04:20AM 50.0880 -22.8951 91° East  Level FlightAware Approximate
04:21AM 50.0837 -22.6684 92° East  Level FlightAware Approximate
04:22AM 50.0790 -22.4418 92° East  Level FlightAware Approximate
04:23AM 50.0738 -22.2152 92° East  Level FlightAware Approximate
04:24AM 50.0682 -21.9887 92° East  Level FlightAware Approximate
04:25AM 50.0622 -21.7622 92° East  Level FlightAware Approximate
04:26AM 50.0557 -21.5357 92° East  Level FlightAware Approximate
04:27AM 50.0488 -21.3094 93° East  Level FlightAware Approximate
04:28AM 50.0414 -21.0831 93° East  Level FlightAware Approximate
04:29AM 50.0336 -20.8568 93° East  Level FlightAware Approximate
04:30AM 50.0253 -20.6307 93° East  Level FlightAware Approximate
04:31AM 50.0167 -20.4046 93° East  Level FlightAware Approximate
04:32AM 50.0075 -20.1786 94° East  Level FlightAware Approximate
04:33AM 49.9985 -19.9527 93° East  Level FlightAware Approximate
04:34AM 49.9912 -19.7266 93° East  Level FlightAware Approximate
04:35AM 49.9835 -19.5006 93° East  Level FlightAware Approximate
04:36AM 49.9753 -19.2747 93° East  Level FlightAware Approximate
04:37AM 49.9667 -19.0489 93° East  Level FlightAware Approximate
04:38AM 49.9577 -18.8231 93° East  Level FlightAware Approximate
04:39AM 49.9482 -18.5974 94° East  Level FlightAware Approximate
04:40AM 49.9383 -18.3722 94° East  Level FlightAware Approximate
04:41AM 49.9280 -18.1471 94° East  Level FlightAware Approximate
04:42AM 49.9172 -17.9221 94° East  Level FlightAware Approximate
04:43AM 49.9060 -17.6973 94° East  Level FlightAware Approximate
04:44AM 49.8943 -17.4725 95° East  Level FlightAware Approximate
04:45AM 49.8823 -17.2478 95° East  Level FlightAware Approximate
04:46AM 49.8698 -17.0232 95° East  Level FlightAware Approximate
04:47AM 49.8568 -16.7988 95° East  Level FlightAware Approximate
04:48AM 49.8434 -16.5745 95° East  Level FlightAware Approximate
04:49AM 49.8296 -16.3503 95° East  Level FlightAware Approximate
04:50AM 49.8154 -16.1262 96° East  Level FlightAware Approximate
04:51AM 49.8007 -15.9023 96° East  Level FlightAware Approximate
04:52AM 49.7856 -15.6785 96° East  Level FlightAware Approximate
04:53AM 49.7700 -15.4548 96° East  Level FlightAware Approximate
04:54AM 49.7541 -15.2313 96° East  Level FlightAware Approximate
04:55AM 49.7377 -15.0079 96° East  Level FlightAware Approximate
04:56AM 49.7208 -14.7847 97° East  Level FlightAware Approximate
04:57AM 49.7036 -14.5617 97° East  Level FlightAware Approximate
04:58AM 49.6859 -14.3388 97° East  Level FlightAware Approximate
04:58AM 49.3760 -9.9610 97° East 571 657 35,100  Level FlightAware
04:59AM 49.6678 -14.1161 97° East  Level FlightAware Approximate
04:59AM 49.3500 -9.7890 103° East 571 657 35,100  Level FlightAware
05:00AM 49.3280 -9.6460 103° East 571 657 35,100  Level FlightAware
05:00AM 49.3090 -9.5180 103° East 571 657 35,100  Level FlightAware
05:01AM 49.2840 -9.3540 103° East 571 657 35,100  Level FlightAware
05:02AM 49.2660 -9.2330 103° East 571 657 35,100 -120 Level FlightAware
05:02AM 49.2209 -8.9847 103° East 492 566 35,000  Descending FlightAware UK
05:03AM 49.2130 -8.9250 103° East 572 658 35,100  Climbing FlightAware
05:03AM 49.1834 -8.7497 103° East 492 566 35,000  Descending FlightAware UK
05:03AM 49.1840 -8.7500 103° East 574 661 35,100 120 Climbing FlightAware
05:04AM 49.1590 -8.6000 104° East 575 662 35,100  Level FlightAware
05:05AM 49.1290 -8.4200 104° East 577 664 35,100 -120 Level FlightAware
05:05AM 49.1047 -8.2777 104° East 496 571 35,000 -120 Descending FlightAware UK
05:06AM 49.0848 -8.1596 104° East 496 571 35,000 60 Level FlightAware UK
05:06AM 49.1160 -8.3400 104° East 577 664 35,100  Climbing FlightAware
05:07AM 49.0442 -7.9230 104° East 496 571 35,000  Descending FlightAware UK
05:07AM 49.0400 -7.8950 104° East 577 664 35,100 60 Climbing FlightAware
05:08AM 49.0030 -7.7300 109° East 568 654 35,100  Level FlightAware
05:08AM 48.9570 -7.5740 114° Southeast 566 651 35,100 -120 Level FlightAware
05:09AM 48.9210 -7.4558 114° Southeast 494 568 35,000  Descending FlightAware UK
05:09AM 48.9120 -7.4290 114° Southeast 563 648 35,100 120 Climbing FlightAware
05:10AM 48.8690 -7.2960 116° Southeast 563 648 35,100 -120 Level FlightAware
05:10AM 48.8178 -7.1366 116° Southeast 492 566 35,000  Descending FlightAware UK
05:10AM 48.8170 -7.1340 116° Southeast 563 648 35,100 120 Climbing FlightAware
05:11AM 48.7670 -6.9790 116° Southeast 563 648 35,100  Level FlightAware
05:12AM 48.7200 -6.8310 116° Southeast 563 648 35,100 -120 Level FlightAware
05:12AM 48.6812 -6.7112 116° Southeast 494 568 35,000  Descending FlightAware UK
05:13AM 48.6770 -6.6960 116° Southeast 563 648 35,100 120 Climbing FlightAware
05:13AM 48.6280 -6.5450 116° Southeast 563 648 35,100 -120 Level FlightAware
05:14AM 48.5777 -6.3942 116° Southeast 496 571 35,000  Descending FlightAware UK
05:14AM 48.5760 -6.3880 116° Southeast 562 647 35,100 120 Climbing FlightAware
05:15AM 48.5260 -6.2370 117° Southeast 562 647 35,100  Level FlightAware
05:15AM 48.4830 -6.1050 116° Southeast 562 647 35,100 -120 Level FlightAware
05:16AM 48.4383 -5.9736 116° Southeast 496 571 35,000  Descending FlightAware UK
05:16AM 48.4280 -5.9420 116° Southeast 562 647 35,100 120 Climbing FlightAware
05:17AM 48.3980 -5.8510 116° Southeast 562 647 35,100  Level FlightAware
05:17AM 48.3520 -5.7170 117° Southeast 561 646 35,100  Level FlightAware
05:18AM 48.3000 -5.5620 117° Southeast 560 644 35,100 -180 Level FlightAware
05:18AM 48.2972 -5.5557 117° Southeast 496 571 35,000 -240 Descending FlightAware UK
05:18AM 48.2620 -5.4518 117° Southeast 496 571 35,000 120 Level FlightAware UK
05:19AM 48.2500 -5.4150 117° Southeast 559 643 35,100  Climbing FlightAware
05:19AM 48.1980 -5.2630 117° Southeast 559 643 35,000  Descending FlightAware
05:20AM 48.1510 -5.1270 117° Southeast 557 641 35,100 60 Climbing FlightAware
05:21AM 48.1030 -4.9910 118° Southeast 556 640 35,100  Level FlightAware
05:21AM 48.0510 -4.8410 117° Southeast 554 638 35,100  Level FlightAware
05:22AM 48.0030 -4.7050 118° Southeast 554 638 35,100  Level FlightAware
05:23AM 47.9480 -4.5490 118° Southeast 554 638 35,100  Level FlightAware
05:24AM 47.9000 -4.4130 118° Southeast 554 638 35,100  Level FlightAware
05:24AM 47.8510 -4.2740 118° Southeast 553 636 35,100  Level FlightAware
05:25AM 47.8010 -4.1340 118° Southeast 553 636 35,100  Level FlightAware
05:26AM 47.7160 -3.9000 118° Southeast 551 634 35,100  Level FlightAware
05:27AM 47.6620 -3.7520 118° Southeast 551 634 35,100  Level FlightAware
05:28AM 47.6140 -3.6190 118° Southeast 550 633 35,100  Level FlightAware
05:28AM 47.5600 -3.4730 119° Southeast 549 632 35,100  Level FlightAware
05:29AM 47.5110 -3.3410 119° Southeast 549 632 35,100  Level FlightAware
05:30AM 47.4580 -3.1980 119° Southeast 548 631 35,100  Level FlightAware
05:30AM 47.4070 -3.0600 119° Southeast 549 632 35,100  Level FlightAware
05:31AM 47.3580 -2.9300 119° Southeast 548 631 35,100  Level FlightAware
05:32AM 47.3040 -2.7860 119° Southeast 549 632 35,100  Level FlightAware
05:32AM 47.2550 -2.6560 119° Southeast 549 632 35,100  Level FlightAware
05:33AM 47.2020 -2.5180 119° Southeast 551 634 35,100  Level FlightAware
05:34AM 47.1570 -2.4000 119° Southeast 551 634 35,100  Level FlightAware
05:34AM 47.1090 -2.2760 120° Southeast 552 635 35,100  Level FlightAware
05:36AM 47.0070 -2.0130 120° Southeast 551 634 35,100  Level FlightAware
05:37AM 46.9440 -1.8500 119° Southeast 550 633 35,100  Level FlightAware
05:37AM 46.8940 -1.7230 120° Southeast 550 633 35,100  Level FlightAware
05:38AM 46.8370 -1.5780 120° Southeast 549 632 35,100  Level FlightAware
05:39AM 46.7910 -1.4620 120° Southeast 548 631 35,100  Level FlightAware
05:39AM 46.7330 -1.3170 120° Southeast 546 628 35,100  Level FlightAware
05:40AM 46.6820 -1.1890 120° Southeast 546 628 35,100  Level FlightAware
05:41AM 46.6280 -1.0540 120° Southeast 545 627 35,100  Level FlightAware
05:41AM 46.5820 -0.9190 116° Southeast 542 624 35,100  Level FlightAware
05:42AM 46.5550 -0.7740 105° East 536 617 35,100  Level FlightAware
05:43AM 46.5310 -0.6010 101° East 35,100  Level FlightAware
05:44AM 46.5070 -0.4280 101° East 533 613 35,100  Level FlightAware
05:44AM 46.4860 -0.2810 102° East 530 610 35,100  Level FlightAware
05:45AM 46.4660 -0.1380 101° East 528 608 35,100  Level FlightAware
05:46AM 46.4440 0.0150 102° East 526 605 35,100  Level FlightAware
05:47AM 46.4240 0.1520 102° East 525 604 35,100  Level FlightAware
05:47AM 46.4030 0.2900 102° East 524 603 35,100  Level FlightAware
05:48AM 46.3840 0.4200 102° East 522 601 35,100 -120 Level FlightAware
05:49AM 46.3600 0.5820 102° East 520 598 35,000  Descending FlightAware
05:49AM 46.3400 0.7170 102° East 517 595 35,100  Climbing FlightAware
05:51AM 46.2970 0.9990 102° East 515 593 35,100  Level FlightAware
05:52AM 46.2560 1.1840 108° East 517 595 35,100  Level FlightAware
05:52AM 46.2180 1.2920 117° Southeast 518 596 35,100 -120 Level FlightAware
05:53AM 46.1660 1.4270 119° Southeast 517 595 35,000  Descending FlightAware
05:54AM 46.1260 1.5330 119° Southeast 515 593 35,100 60 Climbing FlightAware
05:54AM 46.0630 1.7000 118° Southeast 513 590 35,100  Level FlightAware
05:55AM 46.0270 1.7940 119° Southeast 513 590 35,100  Level FlightAware
05:56AM 45.9390 2.0270 118° Southeast 514 592 35,100  Level FlightAware
05:57AM 45.8880 2.1600 119° Southeast 514 592 35,100  Level FlightAware
05:58AM 45.8230 2.3280 119° Southeast 516 594 35,100  Level FlightAware
05:59AM 45.7770 2.4460 119° Southeast 518 596 35,100  Level FlightAware
05:59AM 45.7260 2.5780 119° Southeast 521 600 35,100  Level FlightAware
06:00AM 45.6790 2.6970 119° Southeast 522 601 35,100  Level FlightAware
06:01AM 45.6360 2.8060 119° Southeast 522 601 35,100  Level FlightAware
06:01AM 45.5820 2.9430 119° Southeast 523 602 35,100 -120 Level FlightAware
06:02AM 45.5210 3.0970 119° Southeast 521 600 35,000  Descending FlightAware
06:03AM 45.4750 3.2120 120° Southeast 519 597 35,100 60 Climbing FlightAware
06:04AM 45.4170 3.3580 119° Southeast 519 597 35,100  Level FlightAware
06:04AM 45.3640 3.4890 120° Southeast 516 594 35,100  Level FlightAware
06:05AM 45.2970 3.6530 120° Southeast 513 590 35,100  Level FlightAware
06:06AM 45.2530 3.7510 123° Southeast 515 593 35,100  Level FlightAware
06:07AM 45.1930 3.8800 123° Southeast 515 593 35,100  Level FlightAware
06:08AM 45.1330 4.0150 122° Southeast 514 592 35,100  Level FlightAware
06:08AM 45.0700 4.1490 124° Southeast 511 588 35,100  Level FlightAware
06:09AM 45.0320 4.2350 122° Southeast 510 587 35,100  Level FlightAware
06:10AM 44.9670 4.3750 123° Southeast 509 586 35,100  Level FlightAware
06:11AM 44.8920 4.5380 123° Southeast 509 586 35,100  Level FlightAware
06:12AM 44.8020 4.7340 123° Southeast 508 585 35,100  Level FlightAware
06:12AM 44.7500 4.8430 124° Southeast 509 586 35,100  Level FlightAware
06:13AM 44.7000 4.9500 123° Southeast 509 586 35,100  Level FlightAware
06:15AM 44.5900 5.1820 124° Southeast 509 586 35,100  Level FlightAware
06:15AM 44.5270 5.3150 124° Southeast 509 586 35,100  Level FlightAware
06:16AM 44.4740 5.4260 124° Southeast 509 586 35,100  Level FlightAware
06:17AM 44.4130 5.5530 124° Southeast 508 585 35,100  Level FlightAware
06:17AM 44.3560 5.6720 124° Southeast 507 583 35,100  Level FlightAware
06:18AM 44.3080 5.7700 124° Southeast 506 582 35,100  Level FlightAware
06:19AM 44.2520 5.8930 122° Southeast 504 580 35,100  Level FlightAware
06:19AM 44.2030 6.0040 122° Southeast 501 577 35,100  Level FlightAware
06:21AM 44.1620 6.0990 121° Southeast 501 577 35,100  Level FlightAware
06:21AM 44.0670 6.3150 121° Southeast 497 572 35,100  Level FlightAware
06:22AM 44.0110 6.4390 122° Southeast 497 572 35,100  Level FlightAware
06:23AM 43.9600 6.5520 122° Southeast 496 571 35,100  Level FlightAware
06:23AM 43.9110 6.6590 122° Southeast 496 571 35,100  Level FlightAware
06:24AM 43.8570 6.7780 122° Southeast 503 579 35,100  Level FlightAware
06:25AM 43.8030 6.8980 122° Southeast 505 581 35,100  Level FlightAware
06:26AM 43.7260 7.0660 122° Southeast 507 583 35,100 -120 Level FlightAware
06:27AM 43.6830 7.1590 123° Southeast 508 585 35,000  Descending FlightAware
06:27AM 43.6340 7.2650 123° Southeast 511 588 35,100 60 Climbing FlightAware
06:28AM 43.5770 7.3880 123° Southeast 513 590 35,100  Level FlightAware
06:29AM 43.5230 7.5050 122° Southeast 513 590 35,100  Level FlightAware
06:29AM 43.4720 7.6140 123° Southeast 511 588 35,100  Level FlightAware
06:30AM 43.4210 7.7240 123° Southeast 511 588 35,100  Level FlightAware
06:31AM 43.3620 7.8500 123° Southeast 510 587 35,100  Level FlightAware
06:31AM 43.3110 7.9580 123° Southeast 510 587 35,100  Level FlightAware
06:32AM 43.2530 8.0780 124° Southeast 511 588 35,100  Level FlightAware
06:33AM 43.1990 8.1930 123° Southeast 511 588 35,100  Level FlightAware
06:33AM 43.1470 8.3000 124° Southeast 510 587 35,100  Level FlightAware
06:34AM 43.0900 8.4200 123° Southeast 512 589 35,100  Level FlightAware
06:35AM 43.0360 8.5330 123° Southeast 511 588 35,100  Level FlightAware
06:36AM 42.9840 8.6400 124° Southeast 510 587 35,100  Level FlightAware
06:36AM 42.9280 8.7540 124° Southeast 508 585 35,100  Level FlightAware
06:37AM 42.8720 8.8710 123° Southeast 507 583 35,100  Level FlightAware
06:38AM 42.8270 8.9620 124° Southeast 508 585 35,100  Level FlightAware
06:38AM 42.7660 9.0860 124° Southeast 505 581 35,100 -120 Level FlightAware
06:39AM 42.7110 9.1970 124° Southeast 503 579 35,000  Descending FlightAware
06:40AM 42.6600 9.3200 119° Southeast 516 594 35,100 180 Climbing FlightAware
06:41AM 42.6200 9.4480 113° Southeast 518 596 35,400 900 Climbing FlightAware
06:41AM 42.5750 9.6020 112° Southeast 520 598 36,600 1,200 Climbing FlightAware
06:42AM 42.5380 9.7350 111° Southeast 526 605 37,100 300 Climbing FlightAware
06:43AM 42.4990 9.8710 111° Southeast 525 604 37,100  Level FlightAware
06:44AM 42.4600 10.0050 111° Southeast 523 602 37,100  Level FlightAware
06:44AM 42.4240 10.1270 112° Southeast 521 600 37,100  Level FlightAware
06:45AM 42.3730 10.3020 111° Southeast 515 593 37,100  Level FlightAware
06:46AM 42.3380 10.4230 111° Southeast 517 595 37,100  Level FlightAware
06:47AM 42.3000 10.5490 112° Southeast 518 596 37,100  Level FlightAware
06:47AM 42.2560 10.7000 111° Southeast 521 600 37,100  Level FlightAware
06:48AM 42.2130 10.8440 112° Southeast 521 600 37,100  Level FlightAware
06:49AM 42.1650 11.0060 112° Southeast 522 601 37,100  Level FlightAware
06:51AM 42.0670 11.2940 115° Southeast 517 595 37,100  Level FlightAware
06:51AM 42.0020 11.3980 130° Southeast 508 585 37,100  Level FlightAware
06:52AM 41.9410 11.4880 132° Southeast 506 582 37,100  Level FlightAware
06:53AM 41.8680 11.5950 132° Southeast 505 581 37,100  Level FlightAware
06:54AM 41.8050 11.6870 133° Southeast 503 579 37,100  Level FlightAware
06:54AM 41.7400 11.7810 133° Southeast 503 579 37,100  Level FlightAware
06:55AM 41.6680 11.8840 133° Southeast 504 580 37,100  Level FlightAware
06:56AM 41.6060 11.9740 133° Southeast 500 575 37,100  Level FlightAware
06:56AM 41.5400 12.0700 133° Southeast 502 578 37,100  Level FlightAware
06:57AM 41.4760 12.1620 133° Southeast 504 580 37,100  Level FlightAware
06:58AM 41.4040 12.2660 133° Southeast 511 588 37,100  Level FlightAware
06:58AM 41.3480 12.3860 122° Southeast 522 601 37,100  Level FlightAware
06:59AM 41.2980 12.5000 120° Southeast 522 601 37,100  Level FlightAware
07:00AM 41.2230 12.6580 122° Southeast 521 600 37,100  Level FlightAware
07:01AM 41.1690 12.7680 123° Southeast 521 600 37,100  Level FlightAware
07:01AM 41.1160 12.8770 123° Southeast 521 600 37,100  Level FlightAware
07:02AM 41.0640 12.9820 123° Southeast 522 601 37,100  Level FlightAware
07:03AM 41.0110 13.0900 123° Southeast 523 602 37,100  Level FlightAware
07:03AM 40.9580 13.2000 123° Southeast 524 603 37,100  Level FlightAware
07:04AM 40.9010 13.3210 122° Southeast 522 601 37,100  Level FlightAware
07:05AM 40.8250 13.4820 122° Southeast 517 595 37,100  Level FlightAware
07:06AM 40.7710 13.5930 123° Southeast 515 593 37,100  Level FlightAware
07:07AM 40.7170 13.7060 122° Southeast 513 590 37,100  Level FlightAware
07:07AM 40.6610 13.8210 123° Southeast 513 590 37,100  Level FlightAware
07:08AM 40.6090 13.9280 123° Southeast 513 590 37,100  Level FlightAware
07:09AM 40.5530 14.0440 122° Southeast 515 593 37,100  Level FlightAware
07:10AM 40.4850 14.1830 123° Southeast 518 596 37,100  Level FlightAware
07:10AM 40.4250 14.3050 123° Southeast 520 598 37,100  Level FlightAware
07:11AM 40.3740 14.4080 123° Southeast 520 598 37,100  Level FlightAware
07:12AM 40.3210 14.5150 123° Southeast 520 598 37,100  Level FlightAware
07:12AM 40.2640 14.6310 123° Southeast 520 598 37,100  Level FlightAware
07:13AM 40.2100 14.7390 123° Southeast 521 600 37,100  Level FlightAware
07:14AM 40.1520 14.8550 123° Southeast 520 598 37,100  Level FlightAware
07:15AM 40.1000 14.9590 123° Southeast 521 600 37,100  Level FlightAware
07:15AM 40.0420 15.0730 124° Southeast 520 598 37,100  Level FlightAware
07:16AM 39.9830 15.1910 123° Southeast 519 597 37,100  Level FlightAware
07:17AM 39.9320 15.2910 124° Southeast 519 597 37,100  Level FlightAware
07:17AM 39.8760 15.4010 124° Southeast 519 597 37,100  Level FlightAware
07:18AM 39.8170 15.5170 123° Southeast 519 597 37,100  Level FlightAware
07:19AM 39.7620 15.6250 123° Southeast 518 596 37,100  Level FlightAware
07:19AM 39.7100 15.7260 124° Southeast 520 598 37,100  Level FlightAware
07:20AM 39.6350 15.8720 124° Southeast 521 600 37,100  Level FlightAware
07:21AM 39.5750 15.9870 124° Southeast 523 602 37,100  Level FlightAware
07:22AM 39.5210 16.0910 124° Southeast 525 604 37,100  Level FlightAware
07:23AM 39.4600 16.2080 124° Southeast 528 608 37,100  Level FlightAware
07:23AM 39.4080 16.3070 124° Southeast 530 610 37,100  Level FlightAware
07:24AM 39.3490 16.4200 124° Southeast 532 612 37,100  Level FlightAware
07:25AM 39.2860 16.5400 124° Southeast 531 611 37,100  Level FlightAware
07:25AM 39.2290 16.6470 124° Southeast 533 613 37,100  Level FlightAware
07:26AM 39.1730 16.7530 124° Southeast 535 616 37,100  Level FlightAware
07:27AM 39.1150 16.8610 125° Southeast 537 618 37,100  Level FlightAware
07:27AM 39.0630 16.9580 125° Southeast 538 619 37,100 -120 Level FlightAware
07:28AM 39.0090 17.0650 123° Southeast 545 627 37,000  Descending FlightAware
07:29AM 38.9640 17.2130 111° Southeast 553 636 37,100 60 Climbing FlightAware
07:29AM 38.9360 17.3290 107° East 553 636 37,100  Level FlightAware
07:30AM 38.9040 17.4670 107° East 554 638 37,100  Level FlightAware
07:32AM 38.8360 17.7480 107° East 555 639 37,100  Level FlightAware
07:32AM 38.8070 17.8670 107° East 555 639 37,100  Level FlightAware
07:33AM 38.7750 17.9960 108° East 555 639 37,100  Level FlightAware
07:34AM 38.7370 18.1450 108° East 555 639 37,100 -120 Level FlightAware
07:35AM 38.7010 18.2920 107° East 555 639 37,000 -60 Descending FlightAware
07:35AM 38.6670 18.4310 107° East 555 639 37,000  Level FlightAware
07:36AM 38.6450 18.5240 107° East 555 639 37,000 60 Level FlightAware
07:37AM 38.5950 18.7080 109° East 550 633 37,100  Climbing FlightAware
07:39AM 38.5003 19.0115 112° Southeast  Level Estimated
07:40AM 38.4458 19.1845 112° Southeast  Level Estimated
07:40AM 38.4320 19.3280 112° Southeast 555 639 37,100  Level FlightAware
07:41AM 38.4030 19.4480 107° East 555 639 37,100  Level FlightAware
07:42AM 38.3800 19.5440 107° East 555 639 37,100  Level FlightAware
07:42AM 38.3490 19.6750 107° East 555 639 37,100  Level FlightAware
07:43AM 38.2940 19.8470 112° Southeast 558 642 37,100  Level FlightAware
07:44AM 38.2580 19.9800 109° East 559 643 37,100  Level FlightAware
07:44AM 38.2190 20.1220 109° East 559 643 37,100  Level FlightAware
07:45AM 38.1800 20.2630 109° East 559 643 37,100  Level FlightAware
07:46AM 38.1430 20.3980 109° East 559 643 37,100  Level FlightAware
07:48AM 38.0474 20.6824 113° Southeast  Level Estimated
07:49AM 37.9897 20.8526 113° Southeast  Level Estimated
07:50AM 37.9317 21.0226 113° Southeast  Level Estimated
07:51AM 37.8735 21.1924 113° Southeast  Level Estimated
07:52AM 37.8151 21.3618 114° Southeast  Level Estimated
07:53AM 37.7564 21.5310 114° Southeast  Level Estimated
07:54AM 37.6975 21.6999 114° Southeast  Level Estimated
07:54AM 37.7190 21.5380 114° Southeast 554 638 37,100  Level FlightAware
07:54AM 37.7100 21.5610 116° Southeast 554 638 37,100  Level FlightAware
07:55AM 37.6890 21.6170 115° Southeast 553 636 37,100  Level FlightAware
07:56AM 37.6250 21.7810 116° Southeast 553 636 37,100  Level FlightAware
07:57AM 37.5780 21.9000 116° Southeast 553 636 37,100  Level FlightAware
07:57AM 37.4140 22.3180 116° Southeast 37,100  Level FlightAware
07:59AM 37.2930 22.7220 111° Southeast 549 632 37,100  Level FlightAware
08:00AM 37.2560 22.8480 110° East 549 632 37,100  Level FlightAware
08:00AM 37.2490 22.8710 112° Southeast 549 632 37,100  Level FlightAware
08:02AM 37.1619 23.1463 112° Southeast  Level FlightAware Approximate
08:05AM 36.9678 23.6393 114° Southeast  Level Estimated
08:06AM 36.9062 23.8049 115° Southeast  Level Estimated
08:07AM 36.8444 23.9703 115° Southeast  Level Estimated
08:08AM 36.7824 24.1354 115° Southeast  Level Estimated
08:09AM 36.7202 24.3003 115° Southeast  Level Estimated
08:10AM 36.6577 24.4649 115° Southeast  Level Estimated
08:11AM 36.5950 24.6292 115° Southeast  Level Estimated
08:12AM 36.5321 24.7933 115° Southeast  Level Estimated
08:13AM 36.4689 24.9571 116° Southeast  Level Estimated
08:14AM 36.4055 25.1206 116° Southeast  Level Estimated
08:15AM 36.3419 25.2838 116° Southeast  Level Estimated
08:15AM 36.4680 25.2860 116° Southeast 539 620 37,100  Level FlightAware
08:15AM 36.4340 25.3790 114° Southeast 539 620 37,100  Level FlightAware
08:16AM 36.4640 25.2970 294° West 539 620 37,100  Level FlightAware
08:17AM 36.4320 25.3820 115° Southeast 539 620 37,100  Level FlightAware
08:17AM 36.4130 25.4320 115° Southeast 540 621 37,100  Level FlightAware
08:18AM 36.3690 25.5510 115° Southeast 540 621 37,100  Level FlightAware
08:19AM 36.1860 26.0370 115° Southeast 539 620 37,100  Level FlightAware
08:19AM 36.1040 26.2540 115° Southeast 539 620 37,100  Level FlightAware
08:20AM 36.0830 26.3090 115° Southeast 539 620 37,100  Level FlightAware
08:20AM 36.0440 26.4120 115° Southeast 539 620 37,100  Level FlightAware
08:22AM 36.0330 26.4390 117° Southeast 539 620 37,100  Level FlightAware
08:23AM 35.9033 26.7467 117° Southeast  Level FlightAware Approximate
08:23AM 35.8760 26.8470 115° Southeast 536 617 37,100  Level FlightAware
08:24AM 35.8310 26.9620 116° Southeast 536 617 37,100  Level FlightAware
08:25AM 35.7880 27.0810 114° Southeast 536 617 37,100  Level FlightAware
08:25AM 35.7470 27.1920 114° Southeast 536 617 37,100  Level FlightAware
08:26AM 35.7080 27.3010 114° Southeast 536 617 37,100  Level FlightAware
08:27AM 35.6270 27.4790 119° Southeast 540 621 37,100  Level FlightAware
08:28AM 35.5670 27.6320 116° Southeast 540 621 37,100  Level FlightAware
08:28AM 35.5340 27.7170 115° Southeast 540 621 37,100  Level FlightAware
08:29AM 35.4710 27.8680 117° Southeast 543 625 37,100  Level FlightAware
08:30AM 35.4010 28.0440 116° Southeast 543 625 37,100  Level FlightAware
08:31AM 35.3400 28.1930 117° Southeast 542 624 37,100  Level FlightAware
08:32AM 35.2940 28.3050 117° Southeast 541 623 37,100  Level FlightAware
08:33AM 35.2460 28.4230 116° Southeast 540 621 37,100  Level FlightAware
08:33AM 35.2010 28.5330 117° Southeast 539 620 37,100  Level FlightAware
08:34AM 35.1530 28.6490 117° Southeast 538 619 37,100  Level FlightAware
08:35AM 35.1220 28.7240 117° Southeast 538 619 37,100  Level FlightAware
08:35AM 35.0720 28.8450 117° Southeast 538 619 37,100  Level FlightAware
08:36AM 35.0150 28.9820 117° Southeast 536 617 37,100  Level FlightAware
08:37AM 34.9610 29.1110 117° Southeast 535 616 37,100  Level FlightAware
08:38AM 34.9120 29.2300 117° Southeast 535 616 37,100  Level FlightAware
08:39AM 34.8230 29.4380 117° Southeast 533 613 37,100  Level FlightAware
08:40AM 34.7800 29.5390 117° Southeast 533 613 37,100  Level FlightAware
08:40AM 34.7240 29.6730 117° Southeast 533 613 37,100  Level FlightAware
08:41AM 34.6650 29.8100 118° Southeast 528 608 37,100  Level FlightAware
08:42AM 34.6180 29.9090 120° Southeast 527 606 37,100  Level FlightAware
08:42AM 34.5790 29.9940 119° Southeast 527 606 37,100  Level FlightAware
08:44AM 34.4790 30.1970 121° Southeast 524 603 37,100  Level FlightAware
08:44AM 34.4250 30.3130 119° Southeast 525 604 37,100  Level FlightAware
08:45AM 34.3690 30.4290 120° Southeast 525 604 37,100  Level FlightAware
08:46AM 34.3020 30.5700 120° Southeast 519 597 37,100  Level FlightAware
08:47AM 34.2360 30.7060 120° Southeast 520 598 37,100  Level FlightAware
08:48AM 34.1920 30.7960 121° Southeast 522 601 37,100  Level FlightAware
08:48AM 34.1310 30.9240 120° Southeast 525 604 37,100  Level FlightAware
08:49AM 34.0800 31.0270 121° Southeast 525 604 37,100  Level FlightAware
08:50AM 34.0110 31.1690 120° Southeast 525 604 37,100  Level FlightAware
08:51AM 33.9610 31.2720 120° Southeast 527 606 37,100  Level FlightAware
08:52AM 33.8930 31.4100 121° Southeast 527 606 37,100  Level FlightAware
08:52AM 33.8360 31.5260 121° Southeast 532 612 37,100  Level FlightAware
08:53AM 33.7920 31.6150 121° Southeast 532 612 37,100  Level FlightAware
08:54AM 33.7280 31.7440 121° Southeast 531 611 37,100  Level FlightAware
08:54AM 33.6780 31.8440 121° Southeast 532 612 37,100  Level FlightAware
08:55AM 33.6210 31.9590 121° Southeast 532 612 37,100  Level FlightAware
08:56AM 33.5750 32.0490 122° Southeast 532 612 37,100  Level FlightAware
08:57AM 33.5020 32.1950 121° Southeast 533 613 37,100  Level FlightAware
08:57AM 33.4530 32.2920 121° Southeast 534 615 37,100 -120 Level FlightAware
08:58AM 33.3940 32.4100 121° Southeast 531 611 37,000 -660 Descending FlightAware
08:59AM 33.3220 32.5510 121° Southeast 526 605 36,000 -1,020 Descending FlightAware
09:00AM 33.2740 32.6440 122° Southeast 522 601 35,400 -900 Descending FlightAware
09:00AM 33.2190 32.7510 122° Southeast 518 596 34,800 -1,200 Descending FlightAware
09:01AM 33.1700 32.8480 121° Southeast 507 583 33,700 -1,920 Descending FlightAware
09:02AM 33.1120 32.9610 121° Southeast 497 572 32,000 -2,220 Descending FlightAware
09:03AM 33.0660 33.0500 122° Southeast 487 560 30,700 -1,980 Descending FlightAware
09:03AM 33.0190 33.1420 121° Southeast 475 547 29,400 -1,980 Descending FlightAware
09:04AM 32.9680 33.2410 122° Southeast 460 529 27,900 -1,980 Descending FlightAware
09:05AM 32.9260 33.3210 122° Southeast 445 512 26,700 -2,040 Descending FlightAware
09:05AM 32.8830 33.4030 122° Southeast 431 496 25,300 -2,100 Descending FlightAware
09:06AM 32.8290 33.5070 122° Southeast 416 479 23,500 -2,100 Descending FlightAware
09:07AM 32.7920 33.5790 121° Southeast 405 466 22,200 -2,100 Descending FlightAware
09:08AM 32.7470 33.6650 122° Southeast 393 452 20,600 -2,100 Descending FlightAware
09:08AM 32.7070 33.7410 122° Southeast 381 438 19,100 -2,100 Descending FlightAware
09:09AM 32.6710 33.8090 122° Southeast 369 425 17,800 -1,980 Descending FlightAware
09:10AM 32.6320 33.8840 122° Southeast 358 412 16,400 -1,920 Descending FlightAware
09:10AM 32.5980 33.9480 122° Southeast 350 403 15,200 -1,860 Descending FlightAware
09:11AM 32.5470 34.0450 122° Southeast 339 390 13,400 -1,860 Descending FlightAware
09:12AM 32.5150 34.1050 122° Southeast 333 383 12,200 -1,860 Descending FlightAware
09:13AM 32.4760 34.1710 125° Southeast 327 376 10,900 -1,080 Descending FlightAware
09:14AM 32.4220 34.2360 135° Southeast 316 364 10,400 -780 Descending FlightAware
09:14AM 32.3800 34.2850 135° Southeast 274 315 9,600 -1,140 Descending FlightAware
09:15AM 32.3560 34.3130 135° Southeast 272 313 9,100 -1,320 Descending FlightAware
09:15AM 32.3410 34.3300 136° Southeast 270 311 8,700 -1,620 Descending FlightAware
09:15AM 32.3180 34.3570 135° Southeast 277 319 8,000 -1,080 Descending FlightAware
09:16AM 32.2860 34.3950 135° Southeast 277 319 7,600 -660 Descending FlightAware
09:19AM 32.0757 34.7191 115° Southeast  Level FlightAware Approximate
09:20AM 32.0001 34.8665 125° Southeast  Level FlightAware Approximate
09:21AM 32.0000 34.8667 125° Southeast  Level FlightAware Approximate
09:22AM 32.0095 34.8769 125° Southeast  Level Estimated
09:23AM 32.0095 34.8769 125° Southeast  Level Estimated
09:24AM 32.0095 34.8769 125° Southeast  Level Estimated
09:25AM 32.0095 34.8769 125° Southeast  Level Estimated
09:26AM 32.0095 34.8769 125° Southeast  Level Estimated
09:27AM 32.0095 34.8769 125° Southeast  Level Estimated
09:28AM 32.0095 34.8769 125° Southeast  Level Estimated